Saint Andrews, South Carolina
Current Conditions -  °F | °C
As of 2:15 PM on Tuesday 27 Jan 2015 (Local Time) from KJZI Reporting Station
Overcast Overcast  
Wind Chill: 43°   Ceiling: 8000
Heat Index: 48°   Visibility: 10mi
Dew Point: 27°   Wind: 13mph
Humidity: 43%   Direction: 310°NW
Pressure: 29.86"   Gusts: 18mph
Location:  32.7979°N, 80.0031°W
Report Text: KJZI 271915Z AUTO 31011G16KT 10SM OVC080 09/M03 A2986 RMK A02 P000
Loading
Personal Weather Stations






























Interactive Weather Map New forecast layout! Learn more

10-Day Weather Forecast

Advertisements
Track Severe Weather on mobile